createdAt,value
2019-02-17T00:01:42.696Z,99.90
2019-02-17T00:04:11.813Z,99.90
2019-02-17T00:06:40.686Z,99.90
2019-02-17T00:09:12.209Z,99.90
2019-02-17T00:11:41.167Z,99.90
2019-02-17T00:14:10.293Z,99.90
2019-02-17T00:16:39.241Z,99.90
2019-02-17T00:19:08.041Z,99.90
2019-02-17T00:21:36.933Z,99.90
2019-02-17T00:24:06.059Z,99.90
2019-02-17T00:26:35.107Z,99.90
2019-02-17T00:29:04.585Z,99.90
2019-02-17T00:31:33.693Z,99.90
2019-02-17T00:34:02.493Z,99.90
2019-02-17T00:36:31.449Z,99.90
2019-02-17T00:39:00.584Z,99.90
2019-02-17T00:41:29.628Z,99.90
2019-02-17T00:43:58.420Z,99.90
2019-02-17T00:46:27.299Z,99.90
2019-02-17T00:48:56.162Z,99.90
2019-02-17T00:51:25.514Z,99.90
2019-02-17T00:53:55.021Z,99.90
2019-02-17T00:56:24.142Z,99.90
2019-02-17T00:58:53.175Z,99.90
2019-02-17T01:01:22.074Z,99.90
2019-02-17T01:03:51.116Z,99.90
2019-02-17T01:06:19.922Z,99.90
2019-02-17T01:08:48.974Z,99.90
2019-02-17T01:11:17.849Z,99.90
2019-02-17T01:13:46.952Z,99.90
2019-02-17T01:16:15.845Z,99.90
2019-02-17T01:18:44.877Z,99.90
2019-02-17T01:21:13.693Z,99.90
2019-02-17T01:23:42.769Z,99.90
2019-02-17T01:26:11.591Z,99.90
2019-02-17T01:28:40.430Z,99.90
2019-02-17T01:31:09.710Z,99.90
2019-02-17T01:33:38.578Z,99.90
2019-02-17T01:36:07.395Z,99.90
2019-02-17T01:38:36.186Z,99.90
2019-02-17T01:41:05.357Z,99.90
2019-02-17T01:43:34.476Z,99.90
2019-02-17T01:46:03.419Z,99.90
2019-02-17T01:48:32.262Z,99.90
2019-02-17T01:51:01.598Z,99.90
2019-02-17T01:53:30.531Z,99.90
2019-02-17T01:55:59.335Z,99.90
2019-02-17T01:58:28.133Z,99.90
2019-02-17T02:00:57.320Z,99.90
2019-02-17T02:03:26.216Z,99.90
2019-02-17T02:05:55.005Z,99.90
2019-02-17T02:08:23.894Z,99.90
2019-02-17T02:10:53.086Z,99.90
2019-02-17T02:13:22.146Z,99.90
2019-02-17T02:15:51.189Z,99.90
2019-02-17T02:18:20.148Z,99.90
2019-02-17T02:20:49.290Z,99.90
2019-02-17T02:23:18.525Z,99.90
2019-02-17T02:25:47.351Z,99.90
2019-02-17T02:28:16.415Z,99.90
2019-02-17T02:30:45.225Z,99.90
2019-02-17T02:33:14.101Z,99.90
2019-02-17T02:35:42.921Z,99.90
2019-02-17T02:38:13.543Z,99.90
2019-02-17T02:40:42.773Z,99.90
2019-02-17T02:43:11.839Z,99.90
2019-02-17T02:45:41.160Z,99.90
2019-02-17T02:48:10.029Z,99.90
2019-02-17T02:50:39.345Z,99.90
2019-02-17T02:53:08.430Z,99.90
2019-02-17T02:55:37.291Z,99.90
2019-02-17T02:58:06.246Z,99.90
2019-02-17T03:00:35.137Z,99.90
2019-02-17T03:03:03.932Z,99.90
2019-02-17T03:05:32.834Z,99.90
2019-02-17T03:08:01.771Z,99.90
2019-02-17T03:10:30.843Z,99.90
2019-02-17T03:12:59.625Z,99.90
2019-02-17T03:15:28.523Z,99.90
2019-02-17T03:17:57.361Z,99.90
2019-02-17T03:20:26.700Z,99.90
2019-02-17T03:22:55.501Z,99.90
2019-02-17T03:25:24.682Z,99.90
2019-02-17T03:27:53.470Z,99.90
2019-02-17T03:30:22.550Z,99.90
2019-02-17T03:32:51.574Z,99.90
2019-02-17T03:35:20.627Z,99.90
2019-02-17T03:37:49.431Z,99.90
2019-02-17T03:40:18.487Z,99.90
2019-02-17T03:42:47.606Z,99.90
2019-02-17T03:45:16.535Z,99.90
2019-02-17T03:47:45.653Z,99.90
2019-02-17T03:50:14.454Z,99.90
2019-02-17T03:52:43.235Z,99.90
2019-02-17T03:55:12.103Z,99.90
2019-02-17T03:57:41.482Z,99.90
2019-02-17T04:00:17.019Z,99.90
2019-02-17T04:02:41.250Z,99.90
2019-02-17T04:05:10.304Z,99.90
2019-02-17T04:07:39.173Z,99.90
2019-02-17T04:10:08.201Z,99.90
2019-02-17T04:12:36.990Z,99.90
2019-02-17T04:15:06.137Z,99.90
2019-02-17T04:17:35.176Z,99.90
2019-02-17T04:20:04.129Z,99.90
2019-02-17T04:22:33.309Z,99.90
2019-02-17T04:25:02.125Z,99.90
2019-02-17T04:27:31.166Z,99.90
2019-02-17T04:30:00.035Z,99.90
2019-02-17T04:32:28.856Z,99.90
2019-02-17T04:34:57.716Z,99.90
2019-02-17T04:37:26.538Z,99.90
2019-02-17T04:39:55.425Z,99.90
2019-02-17T04:42:24.729Z,99.90
2019-02-17T04:44:53.585Z,99.90
2019-02-17T04:47:22.702Z,99.90
2019-02-17T04:49:51.775Z,99.90
2019-02-17T04:52:21.172Z,99.90
2019-02-17T04:54:49.972Z,99.90
2019-02-17T04:57:18.911Z,99.90
2019-02-17T04:59:47.696Z,99.90
2019-02-17T05:02:16.583Z,99.90
2019-02-17T05:04:45.706Z,99.90
2019-02-17T05:07:14.581Z,99.90
2019-02-17T05:09:43.481Z,99.90
2019-02-17T05:12:12.537Z,99.90
2019-02-17T05:14:41.577Z,99.90
2019-02-17T05:17:10.949Z,99.90
2019-02-17T05:19:39.885Z,99.90
2019-02-17T05:22:08.749Z,99.90
2019-02-17T05:24:37.613Z,99.90
2019-02-17T05:27:06.709Z,99.90
2019-02-17T05:29:35.516Z,99.90
2019-02-17T05:32:04.322Z,99.90
2019-02-17T05:34:33.697Z,99.90
2019-02-17T05:37:03.017Z,99.90
2019-02-17T05:39:31.805Z,99.90
2019-02-17T05:42:00.931Z,99.90
2019-02-17T05:44:30.044Z,99.90
2019-02-17T05:46:58.875Z,99.90
2019-02-17T05:49:27.918Z,99.90
2019-02-17T05:51:56.829Z,99.90
2019-02-17T05:54:25.687Z,99.90
2019-02-17T05:56:54.513Z,99.90
2019-02-17T05:59:23.305Z,99.90
2019-02-17T06:01:52.121Z,99.90
2019-02-17T06:04:21.232Z,99.90
2019-02-17T06:06:50.114Z,99.90
2019-02-17T06:09:19.219Z,99.90
2019-02-17T06:11:48.045Z,99.90
2019-02-17T06:14:16.829Z,99.90
2019-02-17T06:16:46.246Z,99.90
2019-02-17T06:19:17.607Z,99.90
2019-02-17T06:21:45.638Z,99.90
2019-02-17T06:24:14.429Z,99.90
2019-02-17T06:26:43.241Z,99.90
2019-02-17T06:31:48.209Z,99.90
2019-02-17T06:34:17.000Z,99.90
2019-02-17T06:36:45.814Z,99.90
2019-02-17T06:39:14.853Z,99.90
2019-02-17T06:41:44.157Z,99.90
2019-02-17T06:44:13.471Z,99.90
2019-02-17T06:46:47.053Z,99.90
2019-02-17T06:49:15.933Z,99.90
2019-02-17T06:51:44.975Z,99.90
2019-02-17T06:54:14.048Z,99.90
2019-02-17T06:56:50.911Z,99.90
2019-02-17T06:59:19.700Z,99.90
2019-02-17T07:01:48.736Z,99.90
2019-02-17T07:04:19.635Z,99.90
2019-02-17T07:06:53.934Z,99.90
2019-02-17T07:09:23.053Z,99.90
2019-02-17T07:11:51.866Z,99.90
2019-02-17T07:14:20.677Z,99.90
2019-02-17T07:16:50.018Z,99.90
2019-02-17T07:19:18.857Z,99.90
2019-02-17T07:21:47.654Z,99.90
2019-02-17T07:24:16.486Z,99.90
2019-02-17T07:26:45.269Z,99.90
2019-02-17T07:29:16.742Z,99.90
2019-02-17T07:31:45.378Z,99.90
2019-02-17T07:34:14.195Z,99.90
2019-02-17T07:36:43.263Z,99.90
2019-02-17T07:39:12.160Z,99.90
2019-02-17T07:41:40.966Z,99.90
2019-02-17T07:44:09.773Z,99.90
2019-02-17T07:46:38.890Z,99.90
2019-02-17T07:49:07.949Z,99.90
2019-02-17T07:51:37.084Z,99.90
2019-02-17T07:54:06.200Z,99.90
2019-02-17T07:56:35.246Z,99.90
2019-02-17T07:59:04.313Z,99.90
2019-02-17T08:01:33.613Z,99.90
2019-02-17T08:04:02.729Z,99.90
2019-02-17T08:06:31.607Z,99.90
2019-02-17T08:09:00.412Z,99.90
2019-02-17T08:11:29.282Z,99.90
2019-02-17T08:13:58.353Z,99.90
2019-02-17T08:16:27.150Z,99.90
2019-02-17T08:18:55.961Z,99.90
2019-02-17T08:21:24.754Z,99.90
2019-02-17T08:23:53.576Z,99.90
2019-02-17T08:26:22.639Z,99.90
2019-02-17T08:28:51.702Z,99.90
2019-02-17T08:31:20.833Z,99.90
2019-02-17T08:33:49.627Z,99.90
2019-02-17T08:36:19.586Z,99.90
2019-02-17T08:38:48.402Z,99.90
2019-02-17T08:41:17.527Z,99.90
2019-02-17T08:43:46.401Z,99.90
2019-02-17T08:46:15.732Z,99.90
2019-02-17T08:48:44.553Z,99.90
2019-02-17T08:51:13.501Z,99.90
2019-02-17T08:53:42.305Z,99.90
2019-02-17T08:56:11.117Z,99.90
2019-02-17T08:58:39.945Z,99.90
2019-02-17T09:01:08.819Z,99.90
2019-02-17T09:03:37.605Z,99.90
2019-02-17T09:06:06.413Z,99.90
2019-02-17T09:08:35.212Z,99.90
2019-02-17T09:11:04.477Z,99.90
2019-02-17T09:13:33.411Z,99.90
2019-02-17T09:16:02.327Z,99.90
2019-02-17T09:18:31.199Z,99.90
2019-02-17T09:21:00.142Z,99.90
2019-02-17T09:23:29.212Z,99.90
2019-02-17T09:25:58.026Z,99.40
2019-02-17T09:28:26.813Z,94.90
2019-02-17T09:30:55.863Z,91.20
2019-02-17T09:33:24.901Z,89.90
2019-02-17T09:35:53.705Z,87.00
2019-02-17T09:38:22.581Z,81.80
2019-02-17T09:40:51.400Z,82.10
2019-02-17T09:43:20.196Z,82.30
2019-02-17T09:45:48.998Z,83.80
2019-02-17T09:48:17.793Z,81.30
2019-02-17T09:50:47.149Z,82.40
2019-02-17T09:53:15.934Z,81.50
2019-02-17T09:55:45.001Z,82.20
2019-02-17T09:58:14.051Z,80.60
2019-02-17T10:00:44.189Z,81.90
2019-02-17T10:03:13.236Z,81.80
2019-02-17T10:05:42.020Z,76.10
2019-02-17T10:08:11.313Z,74.70
2019-02-17T10:10:41.699Z,75.20
2019-02-17T10:13:10.502Z,75.80
2019-02-17T10:15:39.289Z,78.80
2019-02-17T10:18:08.094Z,78.70
2019-02-17T10:20:37.128Z,80.10
2019-02-17T10:23:06.428Z,79.80
2019-02-17T10:25:35.219Z,74.90
2019-02-17T10:28:04.105Z,75.30
2019-02-17T10:30:33.292Z,74.10
2019-02-17T10:33:02.090Z,72.50
2019-02-17T10:35:30.886Z,71.60
2019-02-17T10:37:59.681Z,72.40
2019-02-17T10:40:28.490Z,75.80
2019-02-17T10:42:57.551Z,74.60
2019-02-17T10:45:26.497Z,73.40
2019-02-17T10:47:55.318Z,78.00
2019-02-17T10:50:24.121Z,85.30
2019-02-17T10:52:53.214Z,88.70
2019-02-17T10:55:22.037Z,90.90
2019-02-17T10:57:51.008Z,91.30
2019-02-17T11:00:20.001Z,93.30
2019-02-17T11:02:49.605Z,94.90
2019-02-17T11:05:18.489Z,95.80
2019-02-17T11:07:47.373Z,98.60
2019-02-17T11:10:16.266Z,97.80
2019-02-17T11:30:30.181Z,99.90
2019-02-17T11:32:59.019Z,99.80
2019-02-17T11:35:29.855Z,99.40
2019-02-17T11:37:58.910Z,99.70
2019-02-17T11:40:28.061Z,99.90
2019-02-17T11:42:57.005Z,99.90
2019-02-17T11:45:26.248Z,99.00
2019-02-17T11:47:55.074Z,99.40
2019-02-17T11:50:24.278Z,99.90
2019-02-17T11:52:53.084Z,99.70
2019-02-17T11:55:22.832Z,99.60
2019-02-17T11:57:52.103Z,99.90
2019-02-17T12:00:21.218Z,99.90
2019-02-17T12:02:50.137Z,98.70
2019-02-17T12:05:19.271Z,98.50
2019-02-17T12:07:48.337Z,99.40
2019-02-17T12:10:17.571Z,98.20
2019-02-17T12:12:46.662Z,98.40
2019-02-17T12:15:15.981Z,98.40
2019-02-17T12:17:45.450Z,98.30
2019-02-17T12:20:42.744Z,98.30
2019-02-17T12:23:24.977Z,97.10
2019-02-17T12:26:01.405Z,98.10
2019-02-17T12:28:34.850Z,97.80
2019-02-17T12:31:04.374Z,97.90
2019-02-17T12:33:33.442Z,98.10
2019-02-17T12:36:02.349Z,97.60
2019-02-17T12:38:31.414Z,98.00
2019-02-17T12:41:00.232Z,98.10
2019-02-17T12:43:29.386Z,98.00
2019-02-17T12:45:58.192Z,97.50
2019-02-17T12:48:27.017Z,97.60
2019-02-17T12:50:56.205Z,96.70
2019-02-17T12:53:25.526Z,97.70
2019-02-17T12:55:54.329Z,96.50
2019-02-17T12:58:29.601Z,97.00
2019-02-17T13:00:53.684Z,96.70
2019-02-17T13:03:28.446Z,96.20
2019-02-17T13:05:53.266Z,96.30
2019-02-17T13:08:22.373Z,95.60
2019-02-17T13:10:51.194Z,94.30
2019-02-17T13:13:20.008Z,93.30
2019-02-17T13:15:48.833Z,90.50
2019-02-17T13:18:18.131Z,88.60
2019-02-17T13:20:47.281Z,89.40
2019-02-17T13:23:16.091Z,90.80
2019-02-17T13:25:44.914Z,90.90
2019-02-17T13:28:13.713Z,91.60
2019-02-17T13:30:42.595Z,92.10
2019-02-17T13:33:23.435Z,92.00
2019-02-17T13:35:52.558Z,92.50
2019-02-17T13:38:21.522Z,92.40
2019-02-17T13:40:50.337Z,92.70
2019-02-17T13:43:19.650Z,92.60
2019-02-17T13:45:48.901Z,91.50
2019-02-17T13:48:17.954Z,90.60
2019-02-17T13:50:47.041Z,88.80
2019-02-17T13:53:15.941Z,87.10
2019-02-17T13:55:44.936Z,84.00
2019-02-17T13:58:13.974Z,82.30
2019-02-17T14:00:42.922Z,82.90
2019-02-17T14:03:12.394Z,81.60
2019-02-17T14:05:41.219Z,84.10
2019-02-17T14:08:10.159Z,83.70
2019-02-17T14:10:39.397Z,84.00
2019-02-17T14:13:08.575Z,83.80
2019-02-17T14:15:37.597Z,82.10
2019-02-17T14:18:08.078Z,83.40
2019-02-17T14:20:37.207Z,82.40
2019-02-17T14:23:06.406Z,81.00
2019-02-17T14:25:36.812Z,80.00
2019-02-17T14:28:05.774Z,74.50
2019-02-17T14:30:35.750Z,74.70
2019-02-17T14:33:04.737Z,73.40
2019-02-17T14:35:33.849Z,70.00
2019-02-17T14:38:03.150Z,69.30
2019-02-17T14:40:32.181Z,68.20
2019-02-17T14:43:00.987Z,69.40
2019-02-17T14:45:30.067Z,67.10
2019-02-17T14:47:58.885Z,66.30
2019-02-17T14:50:27.689Z,66.60
2019-02-17T14:52:56.719Z,61.00
2019-02-17T14:55:25.765Z,63.80
2019-02-17T14:58:04.710Z,64.80
2019-02-17T15:00:29.031Z,62.10
2019-02-17T15:02:58.068Z,62.20
2019-02-17T15:05:27.125Z,62.50
2019-02-17T15:07:55.921Z,60.90
2019-02-17T15:10:25.217Z,59.00
2019-02-17T15:12:54.009Z,57.00
2019-02-17T15:15:22.877Z,55.90
2019-02-17T15:17:51.676Z,57.60
2019-02-17T15:20:20.830Z,55.60
2019-02-17T15:22:49.616Z,57.50
2019-02-17T15:25:18.500Z,57.10
2019-02-17T15:27:47.293Z,56.50
2019-02-17T15:30:18.025Z,58.80
2019-02-17T15:32:47.016Z,59.80
2019-02-17T15:35:15.999Z,59.70
2019-02-17T15:37:46.660Z,60.70
2019-02-17T15:40:15.865Z,61.30
2019-02-17T15:42:44.681Z,61.40
2019-02-17T15:45:13.745Z,60.70
2019-02-17T15:47:42.936Z,61.60
2019-02-17T15:50:11.905Z,61.40
2019-02-17T15:52:40.973Z,62.60
2019-02-17T15:55:09.917Z,63.00
2019-02-17T15:57:38.965Z,62.80
2019-02-17T16:00:10.422Z,63.70
2019-02-17T16:02:39.200Z,64.80
2019-02-17T16:05:08.859Z,65.20
2019-02-17T16:07:37.881Z,65.00
2019-02-17T16:10:07.825Z,66.00
2019-02-17T16:12:36.685Z,68.90
2019-02-17T16:15:07.467Z,67.30
2019-02-17T16:17:36.256Z,67.80
2019-02-17T16:20:06.295Z,70.00
2019-02-17T16:22:35.368Z,70.90
2019-02-17T16:25:04.645Z,71.30
2019-02-17T16:27:33.461Z,71.70
2019-02-17T16:30:02.630Z,72.50
2019-02-17T16:32:31.753Z,73.00
2019-02-17T16:35:00.570Z,74.70
2019-02-17T16:37:29.774Z,76.10
2019-02-17T16:40:03.205Z,77.40
2019-02-17T16:42:32.225Z,78.80
2019-02-17T16:45:02.433Z,81.00
2019-02-17T16:47:31.234Z,82.80
2019-02-17T16:50:00.786Z,84.40
2019-02-17T16:52:29.601Z,86.10
2019-02-17T16:54:58.445Z,88.00
2019-02-17T16:57:27.289Z,90.10
2019-02-17T16:59:56.161Z,90.70
2019-02-17T17:02:28.414Z,91.90
2019-02-17T17:04:57.703Z,92.80
2019-02-17T17:07:26.500Z,93.80
2019-02-17T17:09:55.641Z,94.80
2019-02-17T17:12:25.009Z,95.60
2019-02-17T17:14:53.877Z,95.50
2019-02-17T17:17:22.705Z,96.40
2019-02-17T17:19:51.567Z,96.10
2019-02-17T17:22:21.644Z,95.80
2019-02-17T17:24:50.906Z,96.20
2019-02-17T17:27:19.774Z,96.30
2019-02-17T17:29:48.805Z,95.90
2019-02-17T17:32:18.195Z,96.50
2019-02-17T17:34:47.249Z,95.10
2019-02-17T17:37:16.069Z,95.20
2019-02-17T17:39:45.284Z,95.70
2019-02-17T17:42:14.088Z,96.40
2019-02-17T17:44:42.954Z,96.50
2019-02-17T17:47:14.517Z,96.60
2019-02-17T17:49:43.300Z,97.40
2019-02-17T17:52:14.950Z,98.00
2019-02-17T17:54:45.376Z,98.80
2019-02-17T17:57:14.688Z,99.00
2019-02-17T17:59:46.917Z,99.90
2019-02-17T18:02:15.796Z,99.90
2019-02-17T18:04:44.582Z,99.90
2019-02-17T18:07:13.398Z,99.90
2019-02-17T18:09:42.197Z,99.90
2019-02-17T18:12:11.258Z,99.90
2019-02-17T18:14:43.266Z,99.90
2019-02-17T18:17:12.348Z,99.90
2019-02-17T18:19:41.177Z,99.90
2019-02-17T18:22:09.978Z,99.90
2019-02-17T18:24:39.025Z,99.90
2019-02-17T18:27:07.825Z,99.90
2019-02-17T18:29:36.619Z,99.90
2019-02-17T18:32:05.588Z,99.90
2019-02-17T18:34:34.402Z,99.90
2019-02-17T18:37:03.509Z,99.90
2019-02-17T18:39:32.389Z,99.90
2019-02-17T18:42:01.689Z,99.90
2019-02-17T18:44:30.499Z,99.90
2019-02-17T18:46:59.785Z,99.90
2019-02-17T18:49:28.590Z,99.90
2019-02-17T18:51:57.930Z,99.90
2019-02-17T18:54:26.822Z,99.90
2019-02-17T18:56:55.885Z,99.90
2019-02-17T18:59:25.007Z,99.90
2019-02-17T19:01:53.873Z,99.90
2019-02-17T19:04:23.194Z,99.90
2019-02-17T19:06:52.014Z,99.90
2019-02-17T19:09:21.090Z,99.90
2019-02-17T19:11:49.960Z,99.90
2019-02-17T19:14:19.025Z,99.90
2019-02-17T19:16:47.817Z,99.90
2019-02-17T19:19:16.665Z,99.90
2019-02-17T19:21:45.449Z,99.90
2019-02-17T19:24:14.492Z,99.90
2019-02-17T19:26:43.336Z,99.90
2019-02-17T19:29:12.408Z,99.90
2019-02-17T19:31:41.253Z,99.90
2019-02-17T19:34:10.133Z,99.90
2019-02-17T19:36:39.188Z,99.90
2019-02-17T19:39:08.321Z,99.90
2019-02-17T19:41:37.387Z,99.90
2019-02-17T19:44:06.194Z,99.90
2019-02-17T19:46:34.989Z,99.90
2019-02-17T19:49:04.018Z,99.90
2019-02-17T19:51:35.485Z,99.90
2019-02-17T19:54:04.355Z,99.90
2019-02-17T19:56:33.489Z,99.90
2019-02-17T19:59:02.282Z,99.90
2019-02-17T20:01:31.297Z,99.90
2019-02-17T20:04:19.136Z,99.90
2019-02-17T20:06:48.189Z,99.90
2019-02-17T20:09:19.009Z,99.90
2019-02-17T20:11:48.089Z,99.90
2019-02-17T20:14:17.024Z,99.90
2019-02-17T20:16:46.436Z,99.90
2019-02-17T20:19:15.621Z,99.90
2019-02-17T20:21:44.406Z,99.90
2019-02-17T20:24:13.209Z,99.90
2019-02-17T20:26:41.993Z,99.90
2019-02-17T20:29:11.939Z,99.90
2019-02-17T20:31:40.958Z,99.90
2019-02-17T20:34:09.761Z,99.90
2019-02-17T20:36:38.809Z,99.90
2019-02-17T20:39:08.559Z,99.90
2019-02-17T20:41:37.661Z,99.90
2019-02-17T20:44:06.463Z,99.90
2019-02-17T20:46:35.516Z,99.90
2019-02-17T20:49:04.399Z,99.90
2019-02-17T20:51:33.177Z,99.90
2019-02-17T20:54:01.973Z,99.90
2019-02-17T20:56:30.753Z,99.90
2019-02-17T20:58:59.545Z,99.90
2019-02-17T21:01:28.388Z,99.90
2019-02-17T21:03:57.509Z,99.90
2019-02-17T21:06:26.533Z,99.90
2019-02-17T21:08:55.329Z,99.90
2019-02-17T21:11:24.462Z,99.90
2019-02-17T21:13:53.245Z,99.90
2019-02-17T21:16:22.053Z,99.90
2019-02-17T21:18:50.833Z,99.90
2019-02-17T21:21:19.954Z,99.90
2019-02-17T21:23:48.746Z,99.90
2019-02-17T21:26:18.115Z,99.90
2019-02-17T21:28:46.921Z,99.90
2019-02-17T21:31:16.030Z,99.90
2019-02-17T21:33:45.065Z,99.90
2019-02-17T21:36:22.832Z,99.90
2019-02-17T21:38:44.385Z,99.90
2019-02-17T21:41:13.218Z,99.90
2019-02-17T21:43:42.272Z,99.90
2019-02-17T21:46:11.278Z,99.90
2019-02-17T21:48:40.137Z,99.90
2019-02-17T21:51:09.282Z,99.90
2019-02-17T21:53:38.145Z,99.90
2019-02-17T21:56:06.941Z,99.90
2019-02-17T21:58:35.724Z,99.90
2019-02-17T22:01:04.935Z,99.90
2019-02-17T22:03:33.728Z,99.90
2019-02-17T22:06:02.840Z,99.90
2019-02-17T22:08:31.628Z,99.90
2019-02-17T22:11:00.931Z,99.90
2019-02-17T22:13:29.722Z,99.90
2019-02-17T22:15:58.593Z,99.90
2019-02-17T22:18:29.631Z,99.90
2019-02-17T22:20:58.138Z,99.90
2019-02-17T22:23:26.930Z,99.90
2019-02-17T22:25:55.715Z,99.90
2019-02-17T22:28:24.493Z,99.90
2019-02-17T22:30:53.369Z,99.90
2019-02-17T22:33:22.150Z,99.90
2019-02-17T22:35:50.961Z,99.90
2019-02-17T22:38:19.814Z,99.90
2019-02-17T22:40:48.609Z,99.90
2019-02-17T22:43:17.404Z,99.90
2019-02-17T22:45:46.213Z,99.90
2019-02-17T22:48:14.996Z,99.90
2019-02-17T22:50:43.810Z,99.90
2019-02-17T22:53:12.849Z,99.90
2019-02-17T22:55:41.635Z,99.90
2019-02-17T22:58:10.449Z,99.90
2019-02-17T23:00:58.359Z,99.90
2019-02-17T23:03:29.019Z,99.90
2019-02-17T23:05:57.809Z,99.90
2019-02-17T23:08:26.834Z,99.90
2019-02-17T23:10:55.725Z,99.90
2019-02-17T23:13:24.504Z,99.90
2019-02-17T23:15:53.348Z,99.90
2019-02-17T23:18:22.131Z,99.90
2019-02-17T23:20:51.162Z,99.90
2019-02-17T23:23:20.214Z,99.90
2019-02-17T23:25:49.004Z,99.90
2019-02-17T23:28:17.800Z,99.90
2019-02-17T23:30:46.672Z,99.90
2019-02-17T23:33:15.460Z,99.90
2019-02-17T23:35:44.753Z,99.90
2019-02-17T23:38:13.546Z,99.90
2019-02-17T23:40:42.605Z,99.90
2019-02-17T23:43:11.893Z,99.90
2019-02-17T23:45:40.910Z,99.90
2019-02-17T23:48:09.710Z,99.90
2019-02-17T23:50:38.747Z,99.90
2019-02-17T23:53:07.612Z,99.90
2019-02-17T23:55:36.652Z,99.90
2019-02-17T23:58:05.834Z,99.90
